createdAt,value
2023-01-31T00:00:11.179Z,1.30
2023-01-31T00:03:13.283Z,1.30
2023-01-31T00:06:26.692Z,1.60
2023-01-31T00:09:28.570Z,1.30
2023-01-31T00:12:30.633Z,1.60
2023-01-31T00:15:32.800Z,1.43
2023-01-31T00:18:35.999Z,1.37
2023-01-31T00:21:38.325Z,1.13
2023-01-31T00:24:40.643Z,1.57
2023-01-31T00:27:42.483Z,1.50
2023-01-31T00:30:44.413Z,1.73
2023-01-31T00:33:47.487Z,1.67
2023-01-31T00:36:49.486Z,1.40
2023-01-31T00:39:51.389Z,1.30
2023-01-31T00:42:53.772Z,1.77
2023-01-31T00:45:55.740Z,2.07
2023-01-31T00:48:57.934Z,1.90
2023-01-31T00:51:59.758Z,1.70
2023-01-31T00:55:01.776Z,1.67
2023-01-31T00:58:03.906Z,1.50
2023-01-31T01:01:18.474Z,2.13
2023-01-31T01:04:20.339Z,1.63
2023-01-31T01:07:22.290Z,1.60
2023-01-31T01:10:24.216Z,1.60
2023-01-31T01:13:26.156Z,1.70
2023-01-31T01:16:32.884Z,1.50
2023-01-31T01:19:35.264Z,1.60
2023-01-31T01:22:38.760Z,1.50
2023-01-31T01:25:45.370Z,1.70
2023-01-31T01:28:48.569Z,1.13
2023-01-31T01:31:50.581Z,1.40
2023-01-31T01:34:52.576Z,1.70
2023-01-31T01:37:54.592Z,1.60
2023-01-31T01:40:57.261Z,1.70
2023-01-31T01:44:00.925Z,1.17
2023-01-31T01:47:02.929Z,1.30
2023-01-31T01:50:35.326Z,1.80
2023-01-31T01:53:40.290Z,1.73
2023-01-31T01:56:44.290Z,1.40
2023-01-31T01:59:50.877Z,1.33
2023-01-31T02:02:57.019Z,1.00
2023-01-31T02:06:02.989Z,1.10
2023-01-31T02:09:07.448Z,1.23
2023-01-31T02:12:10.713Z,1.30
2023-01-31T02:15:12.764Z,1.33
2023-01-31T02:18:14.899Z,1.40
2023-01-31T02:21:26.447Z,1.17
2023-01-31T02:24:53.170Z,1.37
2023-01-31T02:28:14.471Z,1.10
2023-01-31T02:31:36.862Z,1.13
2023-01-31T02:34:47.710Z,1.27
2023-01-31T02:37:55.275Z,1.00
2023-01-31T02:41:09.356Z,0.83
2023-01-31T02:44:48.517Z,1.10
2023-01-31T02:48:08.269Z,1.13
2023-01-31T02:51:21.695Z,1.27
2023-01-31T02:54:45.077Z,0.90
2023-01-31T02:57:50.126Z,0.80
2023-01-31T03:00:57.327Z,0.83
2023-01-31T03:04:04.152Z,1.33
2023-01-31T03:07:15.343Z,0.57
2023-01-31T03:10:42.762Z,1.00
2023-01-31T03:13:50.759Z,1.00
2023-01-31T03:17:21.730Z,1.17
2023-01-31T03:20:36.826Z,0.63
2023-01-31T03:23:39.443Z,1.00
2023-01-31T03:26:42.139Z,0.63
2023-01-31T03:29:44.691Z,0.93
2023-01-31T03:32:56.043Z,0.80
2023-01-31T03:36:06.624Z,0.77
2023-01-31T03:39:45.351Z,1.10
2023-01-31T03:43:12.793Z,0.77
2023-01-31T03:46:22.565Z,0.77
2023-01-31T03:49:26.737Z,1.00
2023-01-31T03:52:36.126Z,0.80
2023-01-31T03:55:56.329Z,0.90
2023-01-31T03:59:03.627Z,0.77
2023-01-31T04:02:08.611Z,1.20
2023-01-31T04:05:14.820Z,0.67
2023-01-31T04:08:17.395Z,1.20
2023-01-31T04:11:22.247Z,0.80
2023-01-31T04:14:24.157Z,0.97
2023-01-31T04:17:26.790Z,1.10
2023-01-31T04:20:28.770Z,0.93
2023-01-31T04:23:30.978Z,1.20
2023-01-31T04:26:33.284Z,1.30
2023-01-31T04:29:35.539Z,0.83
2023-01-31T04:32:37.443Z,1.30
2023-01-31T04:35:42.699Z,1.07
2023-01-31T04:38:44.700Z,1.00
2023-01-31T04:41:46.635Z,1.03
2023-01-31T04:44:48.583Z,0.97
2023-01-31T04:47:50.826Z,1.10
2023-01-31T04:50:52.956Z,1.00
2023-01-31T04:53:54.979Z,0.80
2023-01-31T04:56:56.863Z,0.90
2023-01-31T04:59:58.808Z,1.37
2023-01-31T05:03:02.398Z,1.20
2023-01-31T05:06:04.552Z,0.87
2023-01-31T05:09:06.955Z,0.90
2023-01-31T05:12:09.106Z,1.00
2023-01-31T05:15:12.683Z,1.10
2023-01-31T05:18:14.619Z,1.43
2023-01-31T05:21:16.632Z,0.90
2023-01-31T05:24:20.607Z,1.13
2023-01-31T05:27:22.619Z,0.70
2023-01-31T05:30:25.400Z,1.17
2023-01-31T05:33:29.337Z,0.90
2023-01-31T05:36:32.690Z,1.00
2023-01-31T05:39:34.864Z,1.40
2023-01-31T05:42:37.047Z,1.17
2023-01-31T05:45:39.007Z,1.37
2023-01-31T05:48:41.063Z,1.30
2023-01-31T05:51:43.434Z,1.23
2023-01-31T05:54:45.679Z,1.43
2023-01-31T05:57:47.649Z,0.90
2023-01-31T06:00:49.605Z,0.93
2023-01-31T06:03:51.536Z,1.30
2023-01-31T06:06:53.838Z,1.20
2023-01-31T06:09:55.805Z,1.27
2023-01-31T06:12:58.436Z,1.17
2023-01-31T06:16:01.168Z,1.40
2023-01-31T06:19:03.530Z,0.87
2023-01-31T06:22:06.473Z,1.10
2023-01-31T06:25:10.032Z,1.30
2023-01-31T06:28:12.252Z,1.73
2023-01-31T06:31:15.030Z,1.43
2023-01-31T06:34:17.277Z,1.40
2023-01-31T06:37:19.565Z,1.30
2023-01-31T06:40:21.724Z,1.20
2023-01-31T06:43:24.455Z,1.13
2023-01-31T06:46:26.653Z,1.20
2023-01-31T06:49:28.971Z,1.17
2023-01-31T06:52:31.475Z,0.93
2023-01-31T06:55:33.862Z,0.90
2023-01-31T06:58:36.366Z,1.07
2023-01-31T07:01:38.584Z,0.90
2023-01-31T07:04:40.737Z,0.90
2023-01-31T07:07:42.951Z,1.60
2023-01-31T07:10:45.017Z,1.37
2023-01-31T07:13:48.655Z,1.13
2023-01-31T07:16:50.992Z,1.00
2023-01-31T07:19:53.269Z,1.20
2023-01-31T07:22:59.301Z,0.80
2023-01-31T07:26:04.606Z,1.30
2023-01-31T07:29:06.911Z,1.03
2023-01-31T07:32:09.447Z,0.97
2023-01-31T07:35:11.662Z,1.40
2023-01-31T07:38:14.731Z,1.50
2023-01-31T07:41:16.953Z,1.00
2023-01-31T07:44:19.703Z,0.80
2023-01-31T07:47:21.857Z,1.47
2023-01-31T07:50:25.071Z,1.43
2023-01-31T07:53:32.029Z,0.90
2023-01-31T07:56:34.876Z,1.37
2023-01-31T07:59:36.929Z,1.07
2023-01-31T08:02:57.866Z,1.30
2023-01-31T08:06:13.705Z,1.13
2023-01-31T08:09:16.335Z,0.87
2023-01-31T08:12:19.527Z,1.20
2023-01-31T08:15:22.089Z,1.30
2023-01-31T08:18:24.610Z,1.10
2023-01-31T08:21:27.328Z,1.60
2023-01-31T08:24:31.747Z,0.70
2023-01-31T08:27:33.909Z,1.30
2023-01-31T08:30:40.432Z,1.20
2023-01-31T08:33:43.378Z,1.17
2023-01-31T08:36:45.771Z,0.77
2023-01-31T08:39:49.716Z,1.40
2023-01-31T08:43:01.062Z,0.97
2023-01-31T08:46:03.240Z,1.03
2023-01-31T08:49:07.498Z,0.93
2023-01-31T08:52:10.499Z,0.70
2023-01-31T08:55:14.069Z,0.90
2023-01-31T08:58:16.199Z,0.97
2023-01-31T09:01:19.858Z,0.90
2023-01-31T09:04:22.834Z,1.33
2023-01-31T09:07:25.254Z,1.00
2023-01-31T09:10:28.050Z,1.27
2023-01-31T09:13:31.516Z,0.70
2023-01-31T09:16:33.762Z,1.50
2023-01-31T09:19:35.848Z,0.73
2023-01-31T09:22:38.506Z,0.70
2023-01-31T09:25:47.109Z,0.67
2023-01-31T09:28:51.476Z,1.13
2023-01-31T09:31:53.753Z,1.50
2023-01-31T09:34:55.955Z,1.23
2023-01-31T09:38:01.038Z,0.90
2023-01-31T09:41:19.272Z,0.77
2023-01-31T09:44:27.545Z,0.90
2023-01-31T09:47:46.961Z,1.00
2023-01-31T09:50:56.777Z,1.17
2023-01-31T09:53:59.084Z,1.00
2023-01-31T09:57:06.507Z,1.47
2023-01-31T10:00:43.767Z,1.13
2023-01-31T10:04:16.405Z,1.27
2023-01-31T10:07:42.619Z,1.07
2023-01-31T10:10:57.553Z,1.20
2023-01-31T10:14:41.185Z,0.97
2023-01-31T10:17:51.168Z,1.73
2023-01-31T10:21:07.593Z,0.90
2023-01-31T10:24:32.825Z,1.33
2023-01-31T10:28:13.119Z,1.00
2023-01-31T10:31:43.909Z,1.00
2023-01-31T10:34:51.450Z,0.90
2023-01-31T10:38:01.509Z,1.00
2023-01-31T10:41:16.526Z,2.07
2023-01-31T10:44:24.654Z,1.50
2023-01-31T10:47:49.748Z,2.90
2023-01-31T10:51:09.884Z,1.60
2023-01-31T10:54:26.590Z,2.80
2023-01-31T10:57:28.532Z,1.10
2023-01-31T11:00:33.225Z,1.23
2023-01-31T11:03:35.780Z,1.50
2023-01-31T11:06:37.754Z,1.80
2023-01-31T11:09:43.925Z,1.13
2023-01-31T11:13:07.875Z,1.20
2023-01-31T11:16:11.953Z,1.23
2023-01-31T11:19:21.347Z,0.70
2023-01-31T11:22:27.528Z,1.10
2023-01-31T11:25:32.688Z,1.33
2023-01-31T11:28:39.536Z,1.00
2023-01-31T11:31:45.871Z,0.90
2023-01-31T11:35:05.903Z,1.67
2023-01-31T11:38:11.554Z,1.07
2023-01-31T11:41:35.915Z,0.80
2023-01-31T11:44:37.923Z,1.10
2023-01-31T11:47:46.389Z,0.77
2023-01-31T11:50:53.234Z,1.70
2023-01-31T11:53:55.185Z,1.20
2023-01-31T11:56:59.278Z,0.80
2023-01-31T12:00:05.385Z,0.80
2023-01-31T12:03:09.848Z,0.90
2023-01-31T12:06:33.515Z,0.90
2023-01-31T12:09:44.368Z,0.90
2023-01-31T12:12:46.422Z,0.90
2023-01-31T12:16:03.295Z,1.20
2023-01-31T12:19:15.078Z,1.10
2023-01-31T12:22:32.630Z,1.50
2023-01-31T12:25:34.698Z,0.83
2023-01-31T12:28:59.607Z,1.33
2023-01-31T12:32:27.432Z,2.30
2023-01-31T12:36:06.289Z,1.73
2023-01-31T12:39:23.497Z,1.53
2023-01-31T12:42:44.766Z,1.43
2023-01-31T12:46:10.069Z,1.40
2023-01-31T12:49:21.141Z,1.10
2023-01-31T12:52:44.263Z,1.20
2023-01-31T12:56:24.120Z,1.37
2023-01-31T12:59:28.956Z,1.23
2023-01-31T13:02:53.583Z,1.33
2023-01-31T13:06:21.605Z,1.27
2023-01-31T13:09:31.693Z,1.60
2023-01-31T13:12:35.912Z,1.50
2023-01-31T13:15:46.254Z,1.33
2023-01-31T13:18:50.471Z,1.23
2023-01-31T13:21:56.091Z,1.20
2023-01-31T13:25:21.361Z,1.27
2023-01-31T13:28:29.341Z,1.80
2023-01-31T13:31:36.616Z,1.50
2023-01-31T13:34:51.488Z,1.30
2023-01-31T13:38:01.318Z,1.87
2023-01-31T13:41:04.556Z,2.10
2023-01-31T13:44:07.383Z,1.60
2023-01-31T13:47:21.276Z,1.87
2023-01-31T13:50:45.989Z,1.90
2023-01-31T13:53:57.580Z,1.43
2023-01-31T13:57:00.696Z,1.70
2023-01-31T14:00:10.752Z,1.40
2023-01-31T14:03:19.906Z,5.10
2023-01-31T14:06:22.766Z,5.07
2023-01-31T14:09:34.276Z,2.03
2023-01-31T14:12:38.045Z,1.53
2023-01-31T14:15:51.381Z,1.70
2023-01-31T14:18:54.154Z,2.00
2023-01-31T14:22:03.708Z,2.53
2023-01-31T14:25:11.788Z,1.90
2023-01-31T14:28:14.718Z,1.30
2023-01-31T14:31:20.105Z,1.20
2023-01-31T14:34:28.420Z,1.43
2023-01-31T14:37:49.435Z,1.73
2023-01-31T14:41:01.727Z,1.40
2023-01-31T14:44:30.949Z,1.83
2023-01-31T14:47:36.306Z,1.90
2023-01-31T14:51:07.855Z,2.40
2023-01-31T14:54:30.883Z,2.00
2023-01-31T14:57:39.815Z,2.00
2023-01-31T15:00:49.857Z,2.67
2023-01-31T15:03:56.623Z,1.80
2023-01-31T15:06:58.589Z,1.77
2023-01-31T15:10:00.590Z,1.33
2023-01-31T15:13:02.536Z,1.73
2023-01-31T15:16:08.268Z,1.70
2023-01-31T15:19:19.784Z,1.60
2023-01-31T15:22:22.492Z,1.80
2023-01-31T15:25:36.256Z,1.90
2023-01-31T15:28:42.341Z,2.40
2023-01-31T15:31:46.039Z,2.00
2023-01-31T15:34:55.633Z,2.30
2023-01-31T15:38:05.932Z,2.33
2023-01-31T15:41:36.250Z,1.70
2023-01-31T15:44:38.258Z,1.77
2023-01-31T15:47:40.273Z,2.03
2023-01-31T15:51:10.001Z,2.37
2023-01-31T15:54:15.954Z,3.03
2023-01-31T15:57:18.172Z,2.43
2023-01-31T16:00:31.514Z,2.77
2023-01-31T16:03:35.562Z,3.77
2023-01-31T16:06:38.745Z,4.50
2023-01-31T16:09:41.497Z,4.10
2023-01-31T16:12:49.282Z,3.37
2023-01-31T16:15:51.560Z,3.90
2023-01-31T16:18:56.439Z,2.83
2023-01-31T16:21:59.329Z,2.67
2023-01-31T16:25:03.638Z,6.67
2023-01-31T16:28:07.964Z,1.30
2023-01-31T16:31:16.767Z,1.40
2023-01-31T16:34:34.018Z,1.37
2023-01-31T16:37:44.086Z,1.50
2023-01-31T16:40:49.823Z,1.10
2023-01-31T16:43:52.407Z,1.40
2023-01-31T16:46:54.408Z,2.30
2023-01-31T16:50:36.697Z,1.63
2023-01-31T16:53:42.988Z,2.63
2023-01-31T16:57:06.333Z,2.50
2023-01-31T17:00:28.434Z,2.13
2023-01-31T17:03:31.577Z,1.80
2023-01-31T17:06:34.117Z,1.60
2023-01-31T17:09:36.662Z,1.43
2023-01-31T17:12:40.697Z,1.27
2023-01-31T17:15:43.066Z,1.80
2023-01-31T17:18:44.991Z,3.27
2023-01-31T17:21:48.084Z,1.63
2023-01-31T17:24:51.113Z,0.90
2023-01-31T17:28:00.749Z,1.23
2023-01-31T17:31:02.721Z,1.97
2023-01-31T17:34:06.696Z,1.20
2023-01-31T17:37:08.819Z,2.83
2023-01-31T17:40:11.666Z,2.70
2023-01-31T17:43:19.534Z,2.90
2023-01-31T17:46:22.401Z,3.27
2023-01-31T17:49:24.369Z,3.87
2023-01-31T17:52:26.479Z,2.87
2023-01-31T17:55:28.527Z,1.10
2023-01-31T17:58:30.830Z,1.90
2023-01-31T18:01:32.726Z,2.03
2023-01-31T18:04:34.731Z,1.03
2023-01-31T18:07:37.036Z,0.70
2023-01-31T18:10:39.308Z,0.63
2023-01-31T18:13:41.672Z,0.50
2023-01-31T18:16:44.034Z,0.70
2023-01-31T18:19:46.600Z,0.80
2023-01-31T18:22:48.689Z,1.00
2023-01-31T18:25:50.550Z,1.40
2023-01-31T18:28:54.633Z,1.53
2023-01-31T18:31:58.226Z,1.97
2023-01-31T18:35:00.332Z,0.40
2023-01-31T18:38:02.297Z,0.60
2023-01-31T18:41:07.165Z,0.93
2023-01-31T18:44:09.099Z,1.13
2023-01-31T18:47:12.791Z,0.80
2023-01-31T18:50:14.750Z,0.60
2023-01-31T18:53:16.755Z,0.30
2023-01-31T18:56:21.099Z,0.60
2023-01-31T18:59:23.041Z,0.20
2023-01-31T19:02:24.971Z,1.50
2023-01-31T19:05:27.411Z,0.23
2023-01-31T19:08:29.351Z,0.30
2023-01-31T19:11:32.531Z,0.30
2023-01-31T19:14:34.774Z,0.20
2023-01-31T19:17:37.645Z,0.37
2023-01-31T19:20:39.631Z,0.27
2023-01-31T19:23:42.469Z,0.20
2023-01-31T19:26:45.151Z,0.23
2023-01-31T19:29:47.606Z,0.53
2023-01-31T19:32:51.379Z,0.30
2023-01-31T19:35:53.271Z,0.40
2023-01-31T19:38:56.903Z,6.90
2023-01-31T19:41:59.407Z,1.90
2023-01-31T19:45:01.309Z,0.70
2023-01-31T19:48:04.613Z,0.83
2023-01-31T19:51:08.758Z,0.30
2023-01-31T19:54:15.975Z,0.90
2023-01-31T19:57:17.999Z,0.47
2023-01-31T20:00:20.272Z,0.30
2023-01-31T20:03:22.143Z,0.20
2023-01-31T20:06:26.545Z,0.30
2023-01-31T20:09:28.455Z,0.10
2023-01-31T20:12:30.498Z,0.20
2023-01-31T20:15:34.213Z,0.30
2023-01-31T20:18:37.778Z,0.30
2023-01-31T20:21:39.899Z,0.30
2023-01-31T20:24:42.643Z,0.20
2023-01-31T20:27:44.692Z,0.30
2023-01-31T20:30:47.501Z,0.30
2023-01-31T20:33:52.980Z,0.30
2023-01-31T20:36:55.345Z,0.20
2023-01-31T20:39:57.292Z,0.20
2023-01-31T20:42:59.242Z,0.30
2023-01-31T20:46:11.632Z,0.40
2023-01-31T20:49:13.680Z,0.30
2023-01-31T20:52:15.703Z,0.20
2023-01-31T20:55:18.640Z,0.40
2023-01-31T20:58:20.513Z,0.30
2023-01-31T21:01:22.620Z,0.30
2023-01-31T21:04:24.701Z,0.20
2023-01-31T21:07:26.616Z,0.20
2023-01-31T21:10:28.975Z,0.30
2023-01-31T21:13:32.562Z,0.20
2023-01-31T21:16:34.500Z,0.53
2023-01-31T21:19:36.503Z,0.40
2023-01-31T21:22:38.523Z,0.83
2023-01-31T21:25:40.905Z,0.40
2023-01-31T21:28:44.219Z,0.30
2023-01-31T21:31:46.376Z,0.50
2023-01-31T21:34:48.512Z,0.40
2023-01-31T21:37:50.547Z,0.57
2023-01-31T21:41:15.779Z,0.23
2023-01-31T21:44:17.726Z,0.40
2023-01-31T21:47:19.653Z,0.20
2023-01-31T21:50:22.835Z,0.50
2023-01-31T21:53:26.379Z,0.60
2023-01-31T21:56:31.427Z,0.20
2023-01-31T21:59:33.708Z,0.50
2023-01-31T22:02:36.283Z,0.20
2023-01-31T22:05:38.904Z,0.33
2023-01-31T22:08:41.799Z,0.40
2023-01-31T22:11:45.797Z,0.30
2023-01-31T22:14:50.388Z,0.20
2023-01-31T22:17:54.512Z,0.40
2023-01-31T22:21:09.154Z,0.37
2023-01-31T22:24:11.873Z,0.30
2023-01-31T22:27:14.592Z,0.20
2023-01-31T22:30:17.022Z,0.40
2023-01-31T22:33:19.420Z,0.40
2023-01-31T22:36:22.193Z,0.30
2023-01-31T22:39:24.314Z,0.37
2023-01-31T22:42:26.183Z,0.20
2023-01-31T22:45:34.225Z,0.20
2023-01-31T22:48:38.327Z,0.90
2023-01-31T22:51:40.418Z,0.40
2023-01-31T22:54:42.261Z,0.53
2023-01-31T22:57:44.643Z,0.30
2023-01-31T23:00:47.338Z,0.30
2023-01-31T23:03:49.996Z,0.97
2023-01-31T23:06:52.362Z,0.40
2023-01-31T23:09:55.195Z,0.33
2023-01-31T23:12:57.490Z,0.80
2023-01-31T23:15:59.526Z,0.70
2023-01-31T23:19:01.706Z,0.83
2023-01-31T23:22:05.220Z,0.60
2023-01-31T23:25:09.225Z,0.73
2023-01-31T23:28:11.259Z,0.67
2023-01-31T23:31:13.221Z,0.60
2023-01-31T23:34:15.599Z,0.50
2023-01-31T23:37:17.579Z,0.30
2023-01-31T23:40:20.835Z,0.57
2023-01-31T23:43:23.250Z,0.60
2023-01-31T23:46:25.252Z,0.47
2023-01-31T23:49:27.367Z,0.40
2023-01-31T23:52:29.374Z,0.40
2023-01-31T23:55:31.316Z,0.30
2023-01-31T23:58:33.309Z,0.40
